sensor_id;sensor_type;location;lat;lon;timestamp;P1;P2;P0
46573;PMS5003;32299;53.366;-1.544;2022-12-18T00:01:19;28;26;
46573;PMS5003;32299;53.366;-1.544;2022-12-18T00:03:54;48;27;
46573;PMS5003;32299;53.366;-1.544;2022-12-18T00:06:22;41;28;
46573;PMS5003;32299;53.366;-1.544;2022-12-18T00:08:51;40;28;
46573;PMS5003;32299;53.366;-1.544;2022-12-18T00:11:19;35;25;
46573;PMS5003;32299;53.366;-1.544;2022-12-18T00:13:47;29;25;
46573;PMS5003;32299;53.366;-1.544;2022-12-18T00:16:16;36;27;
46573;PMS5003;32299;53.366;-1.544;2022-12-18T00:18:46;32;21;
46573;PMS5003;32299;53.366;-1.544;2022-12-18T00:21:13;31;29;
46573;PMS5003;32299;53.366;-1.544;2022-12-18T00:23:41;39;24;
46573;PMS5003;32299;53.366;-1.544;2022-12-18T00:26:10;24;21;
46573;PMS5003;32299;53.366;-1.544;2022-12-18T00:28:43;26;22;
46573;PMS5003;32299;53.366;-1.544;2022-12-18T00:31:12;31;24;
46573;PMS5003;32299;53.366;-1.544;2022-12-18T00:33:40;21;20;
46573;PMS5003;32299;53.366;-1.544;2022-12-18T00:36:09;31;22;
46573;PMS5003;32299;53.366;-1.544;2022-12-18T00:38:38;26;24;
46573;PMS5003;32299;53.366;-1.544;2022-12-18T00:41:05;30;16;
46573;PMS5003;32299;53.366;-1.544;2022-12-18T00:43:35;17;16;
46573;PMS5003;32299;53.366;-1.544;2022-12-18T00:46:03;21;19;
46573;PMS5003;32299;53.366;-1.544;2022-12-18T00:48:31;24;20;
46573;PMS5003;32299;53.366;-1.544;2022-12-18T00:50:59;35;19;
46573;PMS5003;32299;53.366;-1.544;2022-12-18T00:53:26;28;23;
46573;PMS5003;32299;53.366;-1.544;2022-12-18T00:55:53;20;17;
46573;PMS5003;32299;53.366;-1.544;2022-12-18T00:58:20;26;17;
46573;PMS5003;32299;53.366;-1.544;2022-12-18T01:00:47;34;19;
46573;PMS5003;32299;53.366;-1.544;2022-12-18T01:03:14;28;23;
46573;PMS5003;32299;53.366;-1.544;2022-12-18T01:05:41;19;18;
46573;PMS5003;32299;53.366;-1.544;2022-12-18T01:08:08;35;23;
46573;PMS5003;32299;53.366;-1.544;2022-12-18T01:10:41;25;17;
46573;PMS5003;32299;53.366;-1.544;2022-12-18T01:13:08;24;18;
46573;PMS5003;32299;53.366;-1.544;2022-12-18T01:15:35;32;20;
46573;PMS5003;32299;53.366;-1.544;2022-12-18T01:18:06;28;20;
46573;PMS5003;32299;53.366;-1.544;2022-12-18T01:20:33;25;19;
46573;PMS5003;32299;53.366;-1.544;2022-12-18T01:23:00;23;19;
46573;PMS5003;32299;53.366;-1.544;2022-12-18T01:25:27;21;20;
46573;PMS5003;32299;53.366;-1.544;2022-12-18T01:27:54;18;17;
46573;PMS5003;32299;53.366;-1.544;2022-12-18T01:30:21;26;20;
46573;PMS5003;32299;53.366;-1.544;2022-12-18T01:32:48;24;20;
46573;PMS5003;32299;53.366;-1.544;2022-12-18T01:35:15;24;19;
46573;PMS5003;32299;53.366;-1.544;2022-12-18T01:37:42;34;23;
46573;PMS5003;32299;53.366;-1.544;2022-12-18T01:40:09;38;24;
46573;PMS5003;32299;53.366;-1.544;2022-12-18T01:42:37;28;18;
46573;PMS5003;32299;53.366;-1.544;2022-12-18T01:45:05;34;20;
46573;PMS5003;32299;53.366;-1.544;2022-12-18T01:47:48;22;20;
46573;PMS5003;32299;53.366;-1.544;2022-12-18T01:50:19;25;17;
46573;PMS5003;32299;53.366;-1.544;2022-12-18T01:52:50;30;20;
46573;PMS5003;32299;53.366;-1.544;2022-12-18T01:55:21;24;20;
46573;PMS5003;32299;53.366;-1.544;2022-12-18T01:57:51;32;21;
46573;PMS5003;32299;53.366;-1.544;2022-12-18T02:00:21;19;18;
46573;PMS5003;32299;53.366;-1.544;2022-12-18T02:02:50;30;22;
46573;PMS5003;32299;53.366;-1.544;2022-12-18T02:05:21;27;20;
46573;PMS5003;32299;53.366;-1.544;2022-12-18T02:07:58;41;19;
46573;PMS5003;32299;53.366;-1.544;2022-12-18T02:10:35;23;19;
46573;PMS5003;32299;53.366;-1.544;2022-12-18T02:13:12;29;19;
46573;PMS5003;32299;53.366;-1.544;2022-12-18T02:15:47;27;21;
46573;PMS5003;32299;53.366;-1.544;2022-12-18T02:18:21;43;27;
46573;PMS5003;32299;53.366;-1.544;2022-12-18T02:20:54;36;24;
46573;PMS5003;32299;53.366;-1.544;2022-12-18T02:23:32;20;18;
46573;PMS5003;32299;53.366;-1.544;2022-12-18T02:26:14;29;22;
46573;PMS5003;32299;53.366;-1.544;2022-12-18T02:28:49;19;19;
46573;PMS5003;32299;53.366;-1.544;2022-12-18T02:31:22;25;22;
46573;PMS5003;32299;53.366;-1.544;2022-12-18T02:33:52;26;22;
46573;PMS5003;32299;53.366;-1.544;2022-12-18T02:36:26;31;21;
46573;PMS5003;32299;53.366;-1.544;2022-12-18T02:38:56;38;24;
46573;PMS5003;32299;53.366;-1.544;2022-12-18T02:41:26;39;19;
46573;PMS5003;32299;53.366;-1.544;2022-12-18T02:43:55;32;22;
46573;PMS5003;32299;53.366;-1.544;2022-12-18T02:46:27;22;21;
46573;PMS5003;32299;53.366;-1.544;2022-12-18T02:48:59;28;25;
46573;PMS5003;32299;53.366;-1.544;2022-12-18T02:51:40;37;24;
46573;PMS5003;32299;53.366;-1.544;2022-12-18T02:54:18;25;22;
46573;PMS5003;32299;53.366;-1.544;2022-12-18T02:56:54;22;19;
46573;PMS5003;32299;53.366;-1.544;2022-12-18T02:59:23;44;28;
46573;PMS5003;32299;53.366;-1.544;2022-12-18T03:01:58;42;25;
46573;PMS5003;32299;53.366;-1.544;2022-12-18T03:04:30;26;24;
46573;PMS5003;32299;53.366;-1.544;2022-12-18T03:07:02;22;22;
46573;PMS5003;32299;53.366;-1.544;2022-12-18T03:09:35;37;25;
46573;PMS5003;32299;53.366;-1.544;2022-12-18T03:12:08;45;26;
46573;PMS5003;32299;53.366;-1.544;2022-12-18T03:14:40;30;24;
46573;PMS5003;32299;53.366;-1.544;2022-12-18T03:17:13;36;27;
46573;PMS5003;32299;53.366;-1.544;2022-12-18T03:19:44;28;22;
46573;PMS5003;32299;53.366;-1.544;2022-12-18T03:22:14;36;25;
46573;PMS5003;32299;53.366;-1.544;2022-12-18T03:24:42;39;26;
46573;PMS5003;32299;53.366;-1.544;2022-12-18T03:27:13;28;22;
46573;PMS5003;32299;53.366;-1.544;2022-12-18T03:29:44;45;25;
46573;PMS5003;32299;53.366;-1.544;2022-12-18T03:32:16;40;26;
46573;PMS5003;32299;53.366;-1.544;2022-12-18T03:34:50;28;26;
46573;PMS5003;32299;53.366;-1.544;2022-12-18T03:37:19;42;26;
46573;PMS5003;32299;53.366;-1.544;2022-12-18T03:39:47;39;26;
46573;PMS5003;32299;53.366;-1.544;2022-12-18T03:42:15;42;28;
46573;PMS5003;32299;53.366;-1.544;2022-12-18T03:44:49;37;28;
46573;PMS5003;32299;53.366;-1.544;2022-12-18T03:47:23;31;25;
46573;PMS5003;32299;53.366;-1.544;2022-12-18T03:49:56;35;24;
46573;PMS5003;32299;53.366;-1.544;2022-12-18T03:52:30;50;30;
46573;PMS5003;32299;53.366;-1.544;2022-12-18T03:55:05;48;31;
46573;PMS5003;32299;53.366;-1.544;2022-12-18T03:57:35;45;31;
46573;PMS5003;32299;53.366;-1.544;2022-12-18T04:00:05;32;29;
46573;PMS5003;32299;53.366;-1.544;2022-12-18T04:02:35;39;31;
46573;PMS5003;32299;53.366;-1.544;2022-12-18T04:05:05;43;30;
46573;PMS5003;32299;53.366;-1.544;2022-12-18T04:07:36;39;31;
46573;PMS5003;32299;53.366;-1.544;2022-12-18T04:10:05;32;28;
46573;PMS5003;32299;53.366;-1.544;2022-12-18T04:12:36;51;36;
46573;PMS5003;32299;53.366;-1.544;2022-12-18T04:15:05;43;34;
46573;PMS5003;32299;53.366;-1.544;2022-12-18T04:17:33;55;30;
46573;PMS5003;32299;53.366;-1.544;2022-12-18T04:20:00;51;32;
46573;PMS5003;32299;53.366;-1.544;2022-12-18T04:22:27;35;32;
46573;PMS5003;32299;53.366;-1.544;2022-12-18T04:24:54;43;30;
46573;PMS5003;32299;53.366;-1.544;2022-12-18T04:27:21;57;37;
46573;PMS5003;32299;53.366;-1.544;2022-12-18T04:29:48;42;32;
46573;PMS5003;32299;53.366;-1.544;2022-12-18T04:32:15;45;35;
46573;PMS5003;32299;53.366;-1.544;2022-12-18T04:34:42;47;32;
46573;PMS5003;32299;53.366;-1.544;2022-12-18T04:37:09;55;36;
46573;PMS5003;32299;53.366;-1.544;2022-12-18T04:39:36;51;31;
46573;PMS5003;32299;53.366;-1.544;2022-12-18T04:42:03;62;37;
46573;PMS5003;32299;53.366;-1.544;2022-12-18T04:44:31;50;42;
46573;PMS5003;32299;53.366;-1.544;2022-12-18T04:46:58;52;32;
46573;PMS5003;32299;53.366;-1.544;2022-12-18T04:49:25;39;31;
46573;PMS5003;32299;53.366;-1.544;2022-12-18T04:51:52;41;34;
46573;PMS5003;32299;53.366;-1.544;2022-12-18T04:54:19;42;37;
46573;PMS5003;32299;53.366;-1.544;2022-12-18T04:56:46;49;36;
46573;PMS5003;32299;53.366;-1.544;2022-12-18T04:59:13;44;35;
46573;PMS5003;32299;53.366;-1.544;2022-12-18T05:01:41;44;32;
46573;PMS5003;32299;53.366;-1.544;2022-12-18T05:04:08;58;41;
46573;PMS5003;32299;53.366;-1.544;2022-12-18T05:06:35;44;31;
46573;PMS5003;32299;53.366;-1.544;2022-12-18T05:09:03;61;36;
46573;PMS5003;32299;53.366;-1.544;2022-12-18T05:11:30;64;39;
46573;PMS5003;32299;53.366;-1.544;2022-12-18T05:13:57;59;41;
46573;PMS5003;32299;53.366;-1.544;2022-12-18T05:16:23;56;38;
46573;PMS5003;32299;53.366;-1.544;2022-12-18T05:18:50;48;39;
46573;PMS5003;32299;53.366;-1.544;2022-12-18T05:21:17;62;39;
46573;PMS5003;32299;53.366;-1.544;2022-12-18T05:23:44;59;43;
46573;PMS5003;32299;53.366;-1.544;2022-12-18T05:26:14;69;43;
46573;PMS5003;32299;53.366;-1.544;2022-12-18T05:28:43;44;35;
46573;PMS5003;32299;53.366;-1.544;2022-12-18T05:31:11;66;50;
46573;PMS5003;32299;53.366;-1.544;2022-12-18T05:33:38;66;44;
46573;PMS5003;32299;53.366;-1.544;2022-12-18T05:36:06;51;42;
46573;PMS5003;32299;53.366;-1.544;2022-12-18T05:38:36;55;44;
46573;PMS5003;32299;53.366;-1.544;2022-12-18T05:41:04;46;43;
46573;PMS5003;32299;53.366;-1.544;2022-12-18T05:43:33;69;37;
46573;PMS5003;32299;53.366;-1.544;2022-12-18T05:46:03;75;46;
46573;PMS5003;32299;53.366;-1.544;2022-12-18T05:48:32;66;44;
46573;PMS5003;32299;53.366;-1.544;2022-12-18T05:51:03;62;44;
46573;PMS5003;32299;53.366;-1.544;2022-12-18T05:53:32;56;39;
46573;PMS5003;32299;53.366;-1.544;2022-12-18T05:55:59;52;43;
46573;PMS5003;32299;53.366;-1.544;2022-12-18T05:58:27;70;50;
46573;PMS5003;32299;53.366;-1.544;2022-12-18T06:00:55;67;45;
46573;PMS5003;32299;53.366;-1.544;2022-12-18T06:03:23;72;50;
46573;PMS5003;32299;53.366;-1.544;2022-12-18T06:05:50;76;57;
46573;PMS5003;32299;53.366;-1.544;2022-12-18T06:08:17;60;56;
46573;PMS5003;32299;53.366;-1.544;2022-12-18T06:10:49;71;50;
46573;PMS5003;32299;53.366;-1.544;2022-12-18T06:13:17;80;53;
46573;PMS5003;32299;53.366;-1.544;2022-12-18T06:15:44;69;47;
46573;PMS5003;32299;53.366;-1.544;2022-12-18T06:18:12;83;53;
46573;PMS5003;32299;53.366;-1.544;2022-12-18T06:20:39;78;47;
46573;PMS5003;32299;53.366;-1.544;2022-12-18T06:23:06;69;45;
46573;PMS5003;32299;53.366;-1.544;2022-12-18T06:25:33;66;53;
46573;PMS5003;32299;53.366;-1.544;2022-12-18T06:28:09;91;59;
46573;PMS5003;32299;53.366;-1.544;2022-12-18T06:30:36;87;57;
46573;PMS5003;32299;53.366;-1.544;2022-12-18T06:33:03;86;57;
46573;PMS5003;32299;53.366;-1.544;2022-12-18T06:35:31;76;53;
46573;PMS5003;32299;53.366;-1.544;2022-12-18T06:37:58;68;48;
46573;PMS5003;32299;53.366;-1.544;2022-12-18T06:40:26;99;65;
46573;PMS5003;32299;53.366;-1.544;2022-12-18T06:42:54;97;60;
46573;PMS5003;32299;53.366;-1.544;2022-12-18T06:45:21;108;63;
46573;PMS5003;32299;53.366;-1.544;2022-12-18T06:47:49;82;62;
46573;PMS5003;32299;53.366;-1.544;2022-12-18T06:50:16;93;57;
46573;PMS5003;32299;53.366;-1.544;2022-12-18T06:52:44;95;64;
46573;PMS5003;32299;53.366;-1.544;2022-12-18T06:55:11;90;61;
46573;PMS5003;32299;53.366;-1.544;2022-12-18T06:57:38;90;53;
46573;PMS5003;32299;53.366;-1.544;2022-12-18T07:00:06;88;58;
46573;PMS5003;32299;53.366;-1.544;2022-12-18T07:02:34;95;62;
46573;PMS5003;32299;53.366;-1.544;2022-12-18T07:05:02;92;63;
46573;PMS5003;32299;53.366;-1.544;2022-12-18T07:07:29;84;68;
46573;PMS5003;32299;53.366;-1.544;2022-12-18T07:09:56;89;65;
46573;PMS5003;32299;53.366;-1.544;2022-12-18T07:12:24;92;58;
46573;PMS5003;32299;53.366;-1.544;2022-12-18T07:14:51;93;64;
46573;PMS5003;32299;53.366;-1.544;2022-12-18T07:17:18;73;55;
46573;PMS5003;32299;53.366;-1.544;2022-12-18T07:19:45;77;62;
46573;PMS5003;32299;53.366;-1.544;2022-12-18T07:22:12;89;65;
46573;PMS5003;32299;53.366;-1.544;2022-12-18T07:24:39;98;70;
46573;PMS5003;32299;53.366;-1.544;2022-12-18T07:27:07;100;72;
46573;PMS5003;32299;53.366;-1.544;2022-12-18T07:29:34;79;72;
46573;PMS5003;32299;53.366;-1.544;2022-12-18T07:32:01;92;65;
46573;PMS5003;32299;53.366;-1.544;2022-12-18T07:34:28;102;73;
46573;PMS5003;32299;53.366;-1.544;2022-12-18T07:36:55;97;71;
46573;PMS5003;32299;53.366;-1.544;2022-12-18T07:39:22;103;71;
46573;PMS5003;32299;53.366;-1.544;2022-12-18T07:41:48;117;81;
46573;PMS5003;32299;53.366;-1.544;2022-12-18T07:44:16;99;75;
46573;PMS5003;32299;53.366;-1.544;2022-12-18T07:46:43;96;68;
46573;PMS5003;32299;53.366;-1.544;2022-12-18T07:49:11;98;75;
46573;PMS5003;32299;53.366;-1.544;2022-12-18T07:51:38;106;72;
46573;PMS5003;32299;53.366;-1.544;2022-12-18T07:54:05;103;77;
46573;PMS5003;32299;53.366;-1.544;2022-12-18T07:56:33;110;75;
46573;PMS5003;32299;53.366;-1.544;2022-12-18T07:59:03;101;71;
46573;PMS5003;32299;53.366;-1.544;2022-12-18T08:01:30;109;64;
46573;PMS5003;32299;53.366;-1.544;2022-12-18T08:03:57;97;68;
46573;PMS5003;32299;53.366;-1.544;2022-12-18T08:06:24;104;72;
46573;PMS5003;32299;53.366;-1.544;2022-12-18T08:08:52;93;65;
46573;PMS5003;32299;53.366;-1.544;2022-12-18T08:11:21;103;81;
46573;PMS5003;32299;53.366;-1.544;2022-12-18T08:13:49;96;70;
46573;PMS5003;32299;53.366;-1.544;2022-12-18T08:16:16;109;77;
46573;PMS5003;32299;53.366;-1.544;2022-12-18T08:18:44;97;63;
46573;PMS5003;32299;53.366;-1.544;2022-12-18T08:21:12;99;69;
46573;PMS5003;32299;53.366;-1.544;2022-12-18T08:23:42;97;60;
46573;PMS5003;32299;53.366;-1.544;2022-12-18T08:26:09;82;64;
46573;PMS5003;32299;53.366;-1.544;2022-12-18T08:28:37;80;65;
46573;PMS5003;32299;53.366;-1.544;2022-12-18T08:31:04;83;62;
46573;PMS5003;32299;53.366;-1.544;2022-12-18T08:33:32;103;64;
46573;PMS5003;32299;53.366;-1.544;2022-12-18T08:36:00;96;65;
46573;PMS5003;32299;53.366;-1.544;2022-12-18T08:38:28;107;73;
46573;PMS5003;32299;53.366;-1.544;2022-12-18T08:41:02;97;63;
46573;PMS5003;32299;53.366;-1.544;2022-12-18T08:43:30;104;68;
46573;PMS5003;32299;53.366;-1.544;2022-12-18T08:45:57;92;66;
46573;PMS5003;32299;53.366;-1.544;2022-12-18T08:48:24;102;69;
46573;PMS5003;32299;53.366;-1.544;2022-12-18T08:50:55;97;63;
46573;PMS5003;32299;53.366;-1.544;2022-12-18T08:53:26;101;60;
46573;PMS5003;32299;53.366;-1.544;2022-12-18T08:55:55;97;61;
46573;PMS5003;32299;53.366;-1.544;2022-12-18T08:58:24;91;62;
46573;PMS5003;32299;53.366;-1.544;2022-12-18T09:00:51;87;61;
46573;PMS5003;32299;53.366;-1.544;2022-12-18T09:03:18;87;67;
46573;PMS5003;32299;53.366;-1.544;2022-12-18T09:05:46;100;67;
46573;PMS5003;32299;53.366;-1.544;2022-12-18T09:08:13;100;65;
46573;PMS5003;32299;53.366;-1.544;2022-12-18T09:10:42;78;58;
46573;PMS5003;32299;53.366;-1.544;2022-12-18T09:13:10;93;67;
46573;PMS5003;32299;53.366;-1.544;2022-12-18T09:15:40;87;53;
46573;PMS5003;32299;53.366;-1.544;2022-12-18T09:18:07;74;59;
46573;PMS5003;32299;53.366;-1.544;2022-12-18T09:20:35;86;56;
46573;PMS5003;32299;53.366;-1.544;2022-12-18T09:23:03;80;54;
46573;PMS5003;32299;53.366;-1.544;2022-12-18T09:25:30;89;57;
46573;PMS5003;32299;53.366;-1.544;2022-12-18T09:27:57;78;53;
46573;PMS5003;32299;53.366;-1.544;2022-12-18T09:30:24;93;61;
46573;PMS5003;32299;53.366;-1.544;2022-12-18T09:32:55;110;64;
46573;PMS5003;32299;53.366;-1.544;2022-12-18T09:35:22;76;57;
46573;PMS5003;32299;53.366;-1.544;2022-12-18T09:37:49;77;56;
46573;PMS5003;32299;53.366;-1.544;2022-12-18T09:40:18;86;51;
46573;PMS5003;32299;53.366;-1.544;2022-12-18T09:42:48;86;66;
46573;PMS5003;32299;53.366;-1.544;2022-12-18T09:45:19;87;57;
46573;PMS5003;32299;53.366;-1.544;2022-12-18T09:47:48;81;57;
46573;PMS5003;32299;53.366;-1.544;2022-12-18T09:50:21;90;56;
46573;PMS5003;32299;53.366;-1.544;2022-12-18T09:52:52;85;48;
46573;PMS5003;32299;53.366;-1.544;2022-12-18T09:55:23;87;54;
46573;PMS5003;32299;53.366;-1.544;2022-12-18T09:57:56;82;52;
46573;PMS5003;32299;53.366;-1.544;2022-12-18T10:00:29;86;55;
46573;PMS5003;32299;53.366;-1.544;2022-12-18T10:02:58;83;51;
46573;PMS5003;32299;53.366;-1.544;2022-12-18T10:05:29;96;58;
46573;PMS5003;32299;53.366;-1.544;2022-12-18T10:08:04;91;56;
46573;PMS5003;32299;53.366;-1.544;2022-12-18T10:10:38;94;57;
46573;PMS5003;32299;53.366;-1.544;2022-12-18T10:13:13;86;55;
46573;PMS5003;32299;53.366;-1.544;2022-12-18T10:15:51;86;53;
46573;PMS5003;32299;53.366;-1.544;2022-12-18T10:18:31;86;53;
46573;PMS5003;32299;53.366;-1.544;2022-12-18T10:21:09;89;54;
46573;PMS5003;32299;53.366;-1.544;2022-12-18T10:23:40;78;54;
46573;PMS5003;32299;53.366;-1.544;2022-12-18T10:26:17;87;53;
46573;PMS5003;32299;53.366;-1.544;2022-12-18T10:28:45;89;55;
46573;PMS5003;32299;53.366;-1.544;2022-12-18T10:31:15;64;49;
46573;PMS5003;32299;53.366;-1.544;2022-12-18T10:33:44;69;50;
46573;PMS5003;32299;53.366;-1.544;2022-12-18T10:36:11;63;50;
46573;PMS5003;32299;53.366;-1.544;2022-12-18T10:38:44;73;50;
46573;PMS5003;32299;53.366;-1.544;2022-12-18T10:41:23;65;48;
46573;PMS5003;32299;53.366;-1.544;2022-12-18T10:44:11;54;48;
46573;PMS5003;32299;53.366;-1.544;2022-12-18T10:46:41;82;57;
46573;PMS5003;32299;53.366;-1.544;2022-12-18T10:49:18;96;56;
46573;PMS5003;32299;53.366;-1.544;2022-12-18T10:51:48;67;54;
46573;PMS5003;32299;53.366;-1.544;2022-12-18T10:54:16;70;47;
46573;PMS5003;32299;53.366;-1.544;2022-12-18T10:56:45;67;50;
46573;PMS5003;32299;53.366;-1.544;2022-12-18T10:59:13;81;53;
46573;PMS5003;32299;53.366;-1.544;2022-12-18T11:01:47;80;55;
46573;PMS5003;32299;53.366;-1.544;2022-12-18T11:04:20;78;55;
46573;PMS5003;32299;53.366;-1.544;2022-12-18T11:06:53;87;56;
46573;PMS5003;32299;53.366;-1.544;2022-12-18T11:09:24;89;53;
46573;PMS5003;32299;53.366;-1.544;2022-12-18T11:11:53;77;50;
46573;PMS5003;32299;53.366;-1.544;2022-12-18T11:14:24;70;56;
46573;PMS5003;32299;53.366;-1.544;2022-12-18T11:16:53;56;48;
46573;PMS5003;32299;53.366;-1.544;2022-12-18T11:19:26;76;49;
46573;PMS5003;32299;53.366;-1.544;2022-12-18T11:21:58;78;50;
46573;PMS5003;32299;53.366;-1.544;2022-12-18T11:24:28;77;51;
46573;PMS5003;32299;53.366;-1.544;2022-12-18T11:26:57;100;57;
46573;PMS5003;32299;53.366;-1.544;2022-12-18T11:29:30;83;57;
46573;PMS5003;32299;53.366;-1.544;2022-12-18T11:32:39;87;55;
46573;PMS5003;32299;53.366;-1.544;2022-12-18T11:35:12;87;58;
46573;PMS5003;32299;53.366;-1.544;2022-12-18T11:37:55;68;51;
46573;PMS5003;32299;53.366;-1.544;2022-12-18T11:40:26;75;51;
46573;PMS5003;32299;53.366;-1.544;2022-12-18T11:43:01;62;47;
46573;PMS5003;32299;53.366;-1.544;2022-12-18T11:45:33;64;47;
46573;PMS5003;32299;53.366;-1.544;2022-12-18T11:48:09;80;50;
46573;PMS5003;32299;53.366;-1.544;2022-12-18T11:50:44;64;42;
46573;PMS5003;32299;53.366;-1.544;2022-12-18T11:53:14;74;47;
46573;PMS5003;32299;53.366;-1.544;2022-12-18T11:55:45;75;62;
46573;PMS5003;32299;53.366;-1.544;2022-12-18T11:58:24;70;51;
46573;PMS5003;32299;53.366;-1.544;2022-12-18T12:01:07;72;53;
46573;PMS5003;32299;53.366;-1.544;2022-12-18T12:03:47;60;51;
46573;PMS5003;32299;53.366;-1.544;2022-12-18T12:06:29;63;50;
46573;PMS5003;32299;53.366;-1.544;2022-12-18T12:09:04;70;49;
46573;PMS5003;32299;53.366;-1.544;2022-12-18T12:11:43;77;50;
46573;PMS5003;32299;53.366;-1.544;2022-12-18T12:14:23;82;55;
46573;PMS5003;32299;53.366;-1.544;2022-12-18T12:17:01;72;52;
46573;PMS5003;32299;53.366;-1.544;2022-12-18T12:19:38;96;55;
46573;PMS5003;32299;53.366;-1.544;2022-12-18T12:22:13;65;55;
46573;PMS5003;32299;53.366;-1.544;2022-12-18T12:24:55;72;56;
46573;PMS5003;32299;53.366;-1.544;2022-12-18T12:27:36;89;51;
46573;PMS5003;32299;53.366;-1.544;2022-12-18T12:30:16;75;52;
46573;PMS5003;32299;53.366;-1.544;2022-12-18T12:32:51;76;56;
46573;PMS5003;32299;53.366;-1.544;2022-12-18T12:35:35;77;46;
46573;PMS5003;32299;53.366;-1.544;2022-12-18T12:38:14;65;45;
46573;PMS5003;32299;53.366;-1.544;2022-12-18T12:40:47;91;57;
46573;PMS5003;32299;53.366;-1.544;2022-12-18T12:43:21;66;57;
46573;PMS5003;32299;53.366;-1.544;2022-12-18T12:45:54;87;57;
46573;PMS5003;32299;53.366;-1.544;2022-12-18T12:48:27;79;53;
46573;PMS5003;32299;53.366;-1.544;2022-12-18T12:51:03;74;56;
46573;PMS5003;32299;53.366;-1.544;2022-12-18T12:53:37;69;56;
46573;PMS5003;32299;53.366;-1.544;2022-12-18T12:56:06;97;60;
46573;PMS5003;32299;53.366;-1.544;2022-12-18T12:58:36;80;51;
46573;PMS5003;32299;53.366;-1.544;2022-12-18T13:01:14;85;57;
46573;PMS5003;32299;53.366;-1.544;2022-12-18T13:03:53;85;49;
46573;PMS5003;32299;53.366;-1.544;2022-12-18T13:06:33;76;61;
46573;PMS5003;32299;53.366;-1.544;2022-12-18T13:09:08;95;56;
46573;PMS5003;32299;53.366;-1.544;2022-12-18T13:11:36;71;54;
46573;PMS5003;32299;53.366;-1.544;2022-12-18T13:14:12;91;59;
46573;PMS5003;32299;53.366;-1.544;2022-12-18T13:16:48;79;54;
46573;PMS5003;32299;53.366;-1.544;2022-12-18T13:19:20;81;60;
46573;PMS5003;32299;53.366;-1.544;2022-12-18T13:21:52;86;56;
46573;PMS5003;32299;53.366;-1.544;2022-12-18T13:24:23;94;59;
46573;PMS5003;32299;53.366;-1.544;2022-12-18T13:26:52;78;52;
46573;PMS5003;32299;53.366;-1.544;2022-12-18T13:29:40;69;47;
46573;PMS5003;32299;53.366;-1.544;2022-12-18T13:32:24;79;51;
46573;PMS5003;32299;53.366;-1.544;2022-12-18T13:35:41;82;54;
46573;PMS5003;32299;53.366;-1.544;2022-12-18T13:38:20;80;61;
46573;PMS5003;32299;53.366;-1.544;2022-12-18T13:40:53;85;51;
46573;PMS5003;32299;53.366;-1.544;2022-12-18T13:43:38;76;53;
46573;PMS5003;32299;53.366;-1.544;2022-12-18T13:46:24;81;56;
46573;PMS5003;32299;53.366;-1.544;2022-12-18T13:48:56;84;60;
46573;PMS5003;32299;53.366;-1.544;2022-12-18T13:51:26;84;56;
46573;PMS5003;32299;53.366;-1.544;2022-12-18T13:53:57;95;63;
46573;PMS5003;32299;53.366;-1.544;2022-12-18T13:56:27;80;56;
46573;PMS5003;32299;53.366;-1.544;2022-12-18T13:59:05;85;51;
46573;PMS5003;32299;53.366;-1.544;2022-12-18T14:01:43;79;58;
46573;PMS5003;32299;53.366;-1.544;2022-12-18T14:04:16;89;58;
46573;PMS5003;32299;53.366;-1.544;2022-12-18T14:06:46;82;58;
46573;PMS5003;32299;53.366;-1.544;2022-12-18T14:09:15;82;56;
46573;PMS5003;32299;53.366;-1.544;2022-12-18T14:11:46;72;55;
46573;PMS5003;32299;53.366;-1.544;2022-12-18T14:14:15;68;52;
46573;PMS5003;32299;53.366;-1.544;2022-12-18T14:16:43;80;52;
46573;PMS5003;32299;53.366;-1.544;2022-12-18T14:19:12;63;54;
46573;PMS5003;32299;53.366;-1.544;2022-12-18T14:21:45;69;56;
46573;PMS5003;32299;53.366;-1.544;2022-12-18T14:24:14;64;53;
46573;PMS5003;32299;53.366;-1.544;2022-12-18T14:26:42;85;56;
46573;PMS5003;32299;53.366;-1.544;2022-12-18T14:29:18;86;51;
46573;PMS5003;32299;53.366;-1.544;2022-12-18T14:32:03;76;60;
46573;PMS5003;32299;53.366;-1.544;2022-12-18T14:34:32;77;52;
46573;PMS5003;32299;53.366;-1.544;2022-12-18T14:36:59;74;56;
46573;PMS5003;32299;53.366;-1.544;2022-12-18T14:39:27;83;61;
46573;PMS5003;32299;53.366;-1.544;2022-12-18T14:41:54;91;60;
46573;PMS5003;32299;53.366;-1.544;2022-12-18T14:44:21;70;52;
46573;PMS5003;32299;53.366;-1.544;2022-12-18T14:46:49;81;56;
46573;PMS5003;32299;53.366;-1.544;2022-12-18T14:49:19;74;49;
46573;PMS5003;32299;53.366;-1.544;2022-12-18T14:51:51;74;47;
46573;PMS5003;32299;53.366;-1.544;2022-12-18T14:54:20;67;48;
46573;PMS5003;32299;53.366;-1.544;2022-12-18T14:56:49;71;55;
46573;PMS5003;32299;53.366;-1.544;2022-12-18T14:59:20;77;56;
46573;PMS5003;32299;53.366;-1.544;2022-12-18T15:01:51;77;52;
46573;PMS5003;32299;53.366;-1.544;2022-12-18T15:04:26;82;53;
46573;PMS5003;32299;53.366;-1.544;2022-12-18T15:07:03;70;45;
46573;PMS5003;32299;53.366;-1.544;2022-12-18T15:09:34;61;47;
46573;PMS5003;32299;53.366;-1.544;2022-12-18T15:12:02;69;51;
46573;PMS5003;32299;53.366;-1.544;2022-12-18T15:14:31;72;47;
46573;PMS5003;32299;53.366;-1.544;2022-12-18T15:17:00;54;47;
46573;PMS5003;32299;53.366;-1.544;2022-12-18T15:19:33;71;47;
46573;PMS5003;32299;53.366;-1.544;2022-12-18T15:22:03;85;55;
46573;PMS5003;32299;53.366;-1.544;2022-12-18T15:24:31;71;47;
46573;PMS5003;32299;53.366;-1.544;2022-12-18T15:26:59;71;49;
46573;PMS5003;32299;53.366;-1.544;2022-12-18T15:29:27;61;39;
46573;PMS5003;32299;53.366;-1.544;2022-12-18T15:31:58;65;42;
46573;PMS5003;32299;53.366;-1.544;2022-12-18T15:34:27;54;40;
46573;PMS5003;32299;53.366;-1.544;2022-12-18T15:36:55;71;43;
46573;PMS5003;32299;53.366;-1.544;2022-12-18T15:39:22;42;37;
46573;PMS5003;32299;53.366;-1.544;2022-12-18T15:41:55;68;42;
46573;PMS5003;32299;53.366;-1.544;2022-12-18T15:44:29;46;41;
46573;PMS5003;32299;53.366;-1.544;2022-12-18T15:46:56;52;44;
46573;PMS5003;32299;53.366;-1.544;2022-12-18T15:49:24;58;41;
46573;PMS5003;32299;53.366;-1.544;2022-12-18T15:51:52;61;38;
46573;PMS5003;32299;53.366;-1.544;2022-12-18T15:54:26;55;38;
46573;PMS5003;32299;53.366;-1.544;2022-12-18T15:56:55;74;46;
46573;PMS5003;32299;53.366;-1.544;2022-12-18T15:59:23;77;43;
46573;PMS5003;32299;53.366;-1.544;2022-12-18T16:01:51;63;46;
46573;PMS5003;32299;53.366;-1.544;2022-12-18T16:04:20;62;46;
46573;PMS5003;32299;53.366;-1.544;2022-12-18T16:06:49;63;47;
46573;PMS5003;32299;53.366;-1.544;2022-12-18T16:09:18;77;50;
46573;PMS5003;32299;53.366;-1.544;2022-12-18T16:11:47;47;33;
46573;PMS5003;32299;53.366;-1.544;2022-12-18T16:14:16;53;43;
46573;PMS5003;32299;53.366;-1.544;2022-12-18T16:16:44;52;40;
46573;PMS5003;32299;53.366;-1.544;2022-12-18T16:19:13;66;46;
46573;PMS5003;32299;53.366;-1.544;2022-12-18T16:21:40;56;49;
46573;PMS5003;32299;53.366;-1.544;2022-12-18T16:24:09;49;42;